sensor_id;sensor_type;location;lat;lon;timestamp;P1;durP1;ratioP1;P2;durP2;ratioP2
43819;SDS011;59678;52.476;6.046;2022-10-04T00:00:07;5.85;;;1.40;;
43819;SDS011;59678;52.476;6.046;2022-10-04T00:02:33;9.40;;;2.17;;
43819;SDS011;59678;52.476;6.046;2022-10-04T00:05:00;7.03;;;1.98;;
43819;SDS011;59678;52.476;6.046;2022-10-04T00:07:42;8.02;;;2.22;;
43819;SDS011;59678;52.476;6.046;2022-10-04T00:10:17;7.35;;;2.08;;
43819;SDS011;59678;52.476;6.046;2022-10-04T00:12:45;8.57;;;1.88;;
43819;SDS011;59678;52.476;6.046;2022-10-04T00:15:23;7.75;;;2.15;;
43819;SDS011;59678;52.476;6.046;2022-10-04T00:18:04;8.60;;;2.60;;
43819;SDS011;59678;52.476;6.046;2022-10-04T00:25:48;8.95;;;1.80;;
43819;SDS011;59678;52.476;6.046;2022-10-04T00:28:15;7.55;;;1.85;;
43819;SDS011;59678;52.476;6.046;2022-10-04T00:30:41;8.75;;;1.60;;
43819;SDS011;59678;52.476;6.046;2022-10-04T00:33:07;7.22;;;1.63;;
43819;SDS011;59678;52.476;6.046;2022-10-04T00:40:35;5.75;;;2.05;;
43819;SDS011;59678;52.476;6.046;2022-10-04T00:43:06;7.82;;;2.33;;
43819;SDS011;59678;52.476;6.046;2022-10-04T00:45:34;10.63;;;2.80;;
43819;SDS011;59678;52.476;6.046;2022-10-04T00:48:43;12.95;;;3.05;;
43819;SDS011;59678;52.476;6.046;2022-10-04T00:50:52;11.93;;;3.72;;
43819;SDS011;59678;52.476;6.046;2022-10-04T00:55:55;9.73;;;2.83;;
43819;SDS011;59678;52.476;6.046;2022-10-04T00:58:23;12.23;;;2.95;;
43819;SDS011;59678;52.476;6.046;2022-10-04T01:00:49;17.02;;;4.50;;
43819;SDS011;59678;52.476;6.046;2022-10-04T01:03:18;11.85;;;3.55;;
43819;SDS011;59678;52.476;6.046;2022-10-04T01:05:49;11.77;;;4.10;;
43819;SDS011;59678;52.476;6.046;2022-10-04T01:08:20;10.43;;;3.55;;
43819;SDS011;59678;52.476;6.046;2022-10-04T01:10:54;17.25;;;3.78;;
43819;SDS011;59678;52.476;6.046;2022-10-04T01:13:24;15.60;;;4.55;;
43819;SDS011;59678;52.476;6.046;2022-10-04T01:15:58;15.35;;;3.90;;
43819;SDS011;59678;52.476;6.046;2022-10-04T01:20:56;17.65;;;4.18;;
43819;SDS011;59678;52.476;6.046;2022-10-04T01:28:55;14.95;;;4.38;;
43819;SDS011;59678;52.476;6.046;2022-10-04T01:31:23;12.98;;;4.88;;
43819;SDS011;59678;52.476;6.046;2022-10-04T01:33:50;8.98;;;4.10;;
43819;SDS011;59678;52.476;6.046;2022-10-04T01:36:16;15.63;;;4.00;;
43819;SDS011;59678;52.476;6.046;2022-10-04T01:38:42;12.98;;;4.80;;
43819;SDS011;59678;52.476;6.046;2022-10-04T01:41:08;10.98;;;4.25;;
43819;SDS011;59678;52.476;6.046;2022-10-04T01:43:36;12.98;;;4.88;;
43819;SDS011;59678;52.476;6.046;2022-10-04T01:46:07;8.98;;;4.60;;
43819;SDS011;59678;52.476;6.046;2022-10-04T01:48:35;9.93;;;3.92;;
43819;SDS011;59678;52.476;6.046;2022-10-04T01:51:03;16.33;;;4.93;;
43819;SDS011;59678;52.476;6.046;2022-10-04T01:53:31;9.27;;;4.13;;
43819;SDS011;59678;52.476;6.046;2022-10-04T01:56:04;13.32;;;4.90;;
43819;SDS011;59678;52.476;6.046;2022-10-04T02:01:14;15.02;;;5.40;;
43819;SDS011;59678;52.476;6.046;2022-10-04T02:03:42;16.30;;;6.15;;
43819;SDS011;59678;52.476;6.046;2022-10-04T02:06:09;12.35;;;5.60;;
43819;SDS011;59678;52.476;6.046;2022-10-04T02:08:37;13.25;;;5.90;;
43819;SDS011;59678;52.476;6.046;2022-10-04T02:11:04;20.17;;;5.82;;
43819;SDS011;59678;52.476;6.046;2022-10-04T02:13:35;15.38;;;5.93;;
43819;SDS011;59678;52.476;6.046;2022-10-04T02:16:02;14.57;;;5.00;;
43819;SDS011;59678;52.476;6.046;2022-10-04T02:18:28;12.38;;;4.90;;
43819;SDS011;59678;52.476;6.046;2022-10-04T02:20:56;13.93;;;5.53;;
43819;SDS011;59678;52.476;6.046;2022-10-04T02:23:22;10.48;;;4.85;;
43819;SDS011;59678;52.476;6.046;2022-10-04T02:25:48;10.20;;;4.63;;
43819;SDS011;59678;52.476;6.046;2022-10-04T02:28:14;12.63;;;5.78;;
43819;SDS011;59678;52.476;6.046;2022-10-04T02:30:41;12.80;;;5.32;;
43819;SDS011;59678;52.476;6.046;2022-10-04T02:33:08;12.85;;;5.60;;
43819;SDS011;59678;52.476;6.046;2022-10-04T02:35:35;12.52;;;5.45;;
43819;SDS011;59678;52.476;6.046;2022-10-04T02:38:16;15.27;;;5.75;;
43819;SDS011;59678;52.476;6.046;2022-10-04T02:40:46;14.63;;;5.90;;
43819;SDS011;59678;52.476;6.046;2022-10-04T02:43:17;13.32;;;5.90;;
43819;SDS011;59678;52.476;6.046;2022-10-04T02:45:47;13.68;;;5.70;;
43819;SDS011;59678;52.476;6.046;2022-10-04T02:50:53;12.20;;;5.78;;
43819;SDS011;59678;52.476;6.046;2022-10-04T02:53:30;16.15;;;7.38;;
43819;SDS011;59678;52.476;6.046;2022-10-04T02:55:57;11.88;;;6.75;;
43819;SDS011;59678;52.476;6.046;2022-10-04T02:58:24;16.08;;;6.93;;
43819;SDS011;59678;52.476;6.046;2022-10-04T03:00:51;18.55;;;6.63;;
43819;SDS011;59678;52.476;6.046;2022-10-04T03:03:22;16.25;;;5.57;;
43819;SDS011;59678;52.476;6.046;2022-10-04T03:08:18;13.73;;;6.95;;
43819;SDS011;59678;52.476;6.046;2022-10-04T03:10:44;16.23;;;6.95;;
43819;SDS011;59678;52.476;6.046;2022-10-04T03:13:10;14.90;;;6.38;;
43819;SDS011;59678;52.476;6.046;2022-10-04T03:15:37;11.02;;;5.63;;
43819;SDS011;59678;52.476;6.046;2022-10-04T03:18:03;16.92;;;7.55;;
43819;SDS011;59678;52.476;6.046;2022-10-04T03:20:29;19.15;;;8.68;;
43819;SDS011;59678;52.476;6.046;2022-10-04T03:22:55;22.08;;;7.18;;
43819;SDS011;59678;52.476;6.046;2022-10-04T03:25:28;17.25;;;7.82;;
43819;SDS011;59678;52.476;6.046;2022-10-04T03:27:58;17.15;;;8.75;;
43819;SDS011;59678;52.476;6.046;2022-10-04T03:30:26;22.50;;;8.95;;
43819;SDS011;59678;52.476;6.046;2022-10-04T03:32:52;22.65;;;9.60;;
43819;SDS011;59678;52.476;6.046;2022-10-04T03:35:21;17.70;;;7.57;;
43819;SDS011;59678;52.476;6.046;2022-10-04T03:37:51;13.98;;;6.38;;
43819;SDS011;59678;52.476;6.046;2022-10-04T03:40:17;14.00;;;6.38;;
43819;SDS011;59678;52.476;6.046;2022-10-04T03:42:44;15.15;;;9.02;;
43819;SDS011;59678;52.476;6.046;2022-10-04T03:45:14;17.55;;;8.50;;
43819;SDS011;59678;52.476;6.046;2022-10-04T03:47:43;17.75;;;8.27;;
43819;SDS011;59678;52.476;6.046;2022-10-04T03:50:13;18.00;;;8.80;;
43819;SDS011;59678;52.476;6.046;2022-10-04T03:52:43;17.08;;;8.55;;
43819;SDS011;59678;52.476;6.046;2022-10-04T03:55:12;16.35;;;9.18;;
43819;SDS011;59678;52.476;6.046;2022-10-04T03:57:40;16.58;;;9.50;;
43819;SDS011;59678;52.476;6.046;2022-10-04T04:00:06;17.50;;;9.70;;
43819;SDS011;59678;52.476;6.046;2022-10-04T04:02:41;27.25;;;10.80;;
43819;SDS011;59678;52.476;6.046;2022-10-04T04:05:24;23.92;;;11.00;;
43819;SDS011;59678;52.476;6.046;2022-10-04T04:10:21;22.15;;;11.07;;
43819;SDS011;59678;52.476;6.046;2022-10-04T04:15:20;20.75;;;10.60;;
43819;SDS011;59678;52.476;6.046;2022-10-04T04:17:46;29.10;;;10.88;;
43819;SDS011;59678;52.476;6.046;2022-10-04T04:22:51;16.10;;;9.60;;
43819;SDS011;59678;52.476;6.046;2022-10-04T04:25:19;16.63;;;9.10;;
43819;SDS011;59678;52.476;6.046;2022-10-04T04:27:48;22.70;;;11.18;;
43819;SDS011;59678;52.476;6.046;2022-10-04T04:30:15;21.67;;;11.27;;
43819;SDS011;59678;52.476;6.046;2022-10-04T04:32:47;23.17;;;11.07;;
43819;SDS011;59678;52.476;6.046;2022-10-04T04:35:22;17.15;;;11.50;;
43819;SDS011;59678;52.476;6.046;2022-10-04T04:38:12;19.13;;;10.68;;
43819;SDS011;59678;52.476;6.046;2022-10-04T04:40:41;19.88;;;10.48;;
43819;SDS011;59678;52.476;6.046;2022-10-04T04:43:08;23.48;;;10.40;;
43819;SDS011;59678;52.476;6.046;2022-10-04T04:45:38;18.77;;;11.18;;
43819;SDS011;59678;52.476;6.046;2022-10-04T04:48:04;21.50;;;10.27;;
43819;SDS011;59678;52.476;6.046;2022-10-04T04:50:56;19.83;;;10.57;;
43819;SDS011;59678;52.476;6.046;2022-10-04T04:53:27;18.42;;;11.50;;
43819;SDS011;59678;52.476;6.046;2022-10-04T04:55:57;20.10;;;11.35;;
43819;SDS011;59678;52.476;6.046;2022-10-04T04:58:24;21.17;;;11.23;;
43819;SDS011;59678;52.476;6.046;2022-10-04T05:01:24;19.33;;;11.98;;
43819;SDS011;59678;52.476;6.046;2022-10-04T05:03:42;19.17;;;12.85;;
43819;SDS011;59678;52.476;6.046;2022-10-04T05:06:23;20.30;;;10.68;;
43819;SDS011;59678;52.476;6.046;2022-10-04T05:08:49;16.70;;;11.38;;
43819;SDS011;59678;52.476;6.046;2022-10-04T05:11:15;18.70;;;12.80;;
43819;SDS011;59678;52.476;6.046;2022-10-04T05:13:49;21.85;;;13.20;;
43819;SDS011;59678;52.476;6.046;2022-10-04T05:16:18;22.48;;;11.93;;
43819;SDS011;59678;52.476;6.046;2022-10-04T05:18:45;22.05;;;12.95;;
43819;SDS011;59678;52.476;6.046;2022-10-04T05:21:12;20.13;;;12.00;;
43819;SDS011;59678;52.476;6.046;2022-10-04T05:23:39;26.63;;;14.70;;
43819;SDS011;59678;52.476;6.046;2022-10-04T05:26:08;22.83;;;12.93;;
43819;SDS011;59678;52.476;6.046;2022-10-04T05:28:35;27.55;;;14.35;;
43819;SDS011;59678;52.476;6.046;2022-10-04T05:31:23;25.25;;;13.55;;
43819;SDS011;59678;52.476;6.046;2022-10-04T05:33:56;20.15;;;11.85;;
43819;SDS011;59678;52.476;6.046;2022-10-04T05:41:30;17.02;;;10.02;;
43819;SDS011;59678;52.476;6.046;2022-10-04T05:43:58;17.70;;;11.27;;
43819;SDS011;59678;52.476;6.046;2022-10-04T05:46:27;19.52;;;10.95;;
43819;SDS011;59678;52.476;6.046;2022-10-04T05:48:55;19.42;;;12.88;;
43819;SDS011;59678;52.476;6.046;2022-10-04T05:51:27;18.40;;;10.75;;
43819;SDS011;59678;52.476;6.046;2022-10-04T05:53:53;22.30;;;12.25;;
43819;SDS011;59678;52.476;6.046;2022-10-04T05:56:23;16.63;;;9.60;;
43819;SDS011;59678;52.476;6.046;2022-10-04T06:01:41;22.27;;;11.25;;
43819;SDS011;59678;52.476;6.046;2022-10-04T06:12:08;17.40;;;10.65;;
43819;SDS011;59678;52.476;6.046;2022-10-04T06:14:39;16.83;;;10.40;;
43819;SDS011;59678;52.476;6.046;2022-10-04T06:20:09;10.48;;;4.38;;
43819;SDS011;59678;52.476;6.046;2022-10-04T06:22:46;21.25;;;11.45;;
43819;SDS011;59678;52.476;6.046;2022-10-04T06:25:14;11.45;;;6.53;;
43819;SDS011;59678;52.476;6.046;2022-10-04T06:27:48;13.15;;;7.72;;
43819;SDS011;59678;52.476;6.046;2022-10-04T06:30:17;16.77;;;7.82;;
43819;SDS011;59678;52.476;6.046;2022-10-04T06:43:22;8.45;;;5.78;;
43819;SDS011;59678;52.476;6.046;2022-10-04T06:53:21;11.55;;;3.90;;
43819;SDS011;59678;52.476;6.046;2022-10-04T07:01:16;11.43;;;6.75;;
43819;SDS011;59678;52.476;6.046;2022-10-04T07:06:23;16.42;;;7.22;;
43819;SDS011;59678;52.476;6.046;2022-10-04T07:08:50;25.13;;;6.80;;
43819;SDS011;59678;52.476;6.046;2022-10-04T07:11:17;11.73;;;5.15;;
43819;SDS011;59678;52.476;6.046;2022-10-04T07:18:59;15.13;;;7.05;;
43819;SDS011;59678;52.476;6.046;2022-10-04T07:21:32;5.85;;;3.75;;
43819;SDS011;59678;52.476;6.046;2022-10-04T07:24:00;11.07;;;5.85;;
43819;SDS011;59678;52.476;6.046;2022-10-04T07:29:21;11.18;;;5.80;;
43819;SDS011;59678;52.476;6.046;2022-10-04T07:31:49;10.38;;;3.67;;
43819;SDS011;59678;52.476;6.046;2022-10-04T07:34:16;11.13;;;5.43;;
43819;SDS011;59678;52.476;6.046;2022-10-04T07:36:47;6.82;;;3.60;;
43819;SDS011;59678;52.476;6.046;2022-10-04T07:41:44;8.05;;;4.63;;
43819;SDS011;59678;52.476;6.046;2022-10-04T07:44:13;7.32;;;4.22;;
43819;SDS011;59678;52.476;6.046;2022-10-04T07:47:24;8.98;;;5.97;;
43819;SDS011;59678;52.476;6.046;2022-10-04T07:49:35;10.50;;;4.82;;
43819;SDS011;59678;52.476;6.046;2022-10-04T07:57:19;11.68;;;6.35;;
43819;SDS011;59678;52.476;6.046;2022-10-04T07:59:47;11.30;;;6.45;;
43819;SDS011;59678;52.476;6.046;2022-10-04T08:18:03;10.50;;;7.55;;
43819;SDS011;59678;52.476;6.046;2022-10-04T08:31:39;13.13;;;7.07;;
43819;SDS011;59678;52.476;6.046;2022-10-04T08:36:56;13.70;;;5.77;;
43819;SDS011;59678;52.476;6.046;2022-10-04T08:42:05;11.05;;;5.15;;
43819;SDS011;59678;52.476;6.046;2022-10-04T08:47:21;9.33;;;4.77;;
43819;SDS011;59678;52.476;6.046;2022-10-04T08:52:40;5.95;;;3.10;;
43819;SDS011;59678;52.476;6.046;2022-10-04T08:55:27;5.03;;;2.90;;
43819;SDS011;59678;52.476;6.046;2022-10-04T09:03:23;9.15;;;3.45;;
43819;SDS011;59678;52.476;6.046;2022-10-04T09:05:57;9.73;;;3.83;;
43819;SDS011;59678;52.476;6.046;2022-10-04T09:11:28;11.60;;;5.25;;
43819;SDS011;59678;52.476;6.046;2022-10-04T09:16:44;7.38;;;4.32;;
43819;SDS011;59678;52.476;6.046;2022-10-04T09:24:31;15.05;;;5.40;;
43819;SDS011;59678;52.476;6.046;2022-10-04T09:27:33;9.82;;;4.85;;
43819;SDS011;59678;52.476;6.046;2022-10-04T09:30:15;9.50;;;3.78;;
43819;SDS011;59678;52.476;6.046;2022-10-04T09:56:51;7.30;;;4.20;;
43819;SDS011;59678;52.476;6.046;2022-10-04T10:00:20;8.60;;;4.45;;
43819;SDS011;59678;52.476;6.046;2022-10-04T10:24:06;13.45;;;3.30;;
43819;SDS011;59678;52.476;6.046;2022-10-04T10:26:51;6.80;;;2.38;;
43819;SDS011;59678;52.476;6.046;2022-10-04T10:29:30;4.72;;;2.63;;
43819;SDS011;59678;52.476;6.046;2022-10-04T10:32:05;9.07;;;2.67;;
43819;SDS011;59678;52.476;6.046;2022-10-04T10:34:49;6.07;;;2.25;;
43819;SDS011;59678;52.476;6.046;2022-10-04T10:37:25;3.95;;;2.25;;
43819;SDS011;59678;52.476;6.046;2022-10-04T10:40:02;7.90;;;2.80;;
43819;SDS011;59678;52.476;6.046;2022-10-04T11:00:31;5.63;;;1.83;;
43819;SDS011;59678;52.476;6.046;2022-10-04T11:03:20;6.13;;;1.88;;
43819;SDS011;59678;52.476;6.046;2022-10-04T11:11:12;3.28;;;2.05;;
43819;SDS011;59678;52.476;6.046;2022-10-04T11:13:47;6.78;;;2.80;;
43819;SDS011;59678;52.476;6.046;2022-10-04T11:24:09;7.78;;;2.60;;
43819;SDS011;59678;52.476;6.046;2022-10-04T11:37:08;4.20;;;2.55;;
43819;SDS011;59678;52.476;6.046;2022-10-04T11:42:18;4.90;;;2.22;;
43819;SDS011;59678;52.476;6.046;2022-10-04T11:44:55;4.07;;;1.88;;
43819;SDS011;59678;52.476;6.046;2022-10-04T11:57:57;3.47;;;1.80;;
43819;SDS011;59678;52.476;6.046;2022-10-04T12:00:24;5.25;;;2.15;;
43819;SDS011;59678;52.476;6.046;2022-10-04T12:03:06;2.75;;;1.48;;
43819;SDS011;59678;52.476;6.046;2022-10-04T12:05:42;4.68;;;1.60;;
43819;SDS011;59678;52.476;6.046;2022-10-04T12:08:22;4.43;;;1.75;;
43819;SDS011;59678;52.476;6.046;2022-10-04T12:11:12;3.78;;;1.85;;
43819;SDS011;59678;52.476;6.046;2022-10-04T12:26:53;5.55;;;1.80;;
43819;SDS011;59678;52.476;6.046;2022-10-04T12:34:35;3.15;;;0.80;;
43819;SDS011;59678;52.476;6.046;2022-10-04T12:39:53;4.03;;;1.55;;
43819;SDS011;59678;52.476;6.046;2022-10-04T12:50:23;4.70;;;2.00;;
43819;SDS011;59678;52.476;6.046;2022-10-04T12:52:44;3.25;;;1.33;;
43819;SDS011;59678;52.476;6.046;2022-10-04T12:55:19;9.77;;;2.17;;
43819;SDS011;59678;52.476;6.046;2022-10-04T13:00:21;8.40;;;1.63;;
43819;SDS011;59678;52.476;6.046;2022-10-04T13:13:19;2.83;;;1.45;;
43819;SDS011;59678;52.476;6.046;2022-10-04T13:15:52;4.65;;;1.40;;
43819;SDS011;59678;52.476;6.046;2022-10-04T13:21:08;4.10;;;1.45;;
43819;SDS011;59678;52.476;6.046;2022-10-04T13:23:37;3.55;;;1.27;;
43819;SDS011;59678;52.476;6.046;2022-10-04T13:29:01;2.20;;;1.30;;
43819;SDS011;59678;52.476;6.046;2022-10-04T13:31:37;1.88;;;1.20;;
43819;SDS011;59678;52.476;6.046;2022-10-04T13:39:25;5.78;;;1.75;;
43819;SDS011;59678;52.476;6.046;2022-10-04T13:44:48;2.03;;;1.02;;
43819;SDS011;59678;52.476;6.046;2022-10-04T13:47:33;5.65;;;1.88;;
43819;SDS011;59678;52.476;6.046;2022-10-04T13:55:42;4.50;;;1.25;;
43819;SDS011;59678;52.476;6.046;2022-10-04T14:06:35;4.45;;;1.90;;
43819;SDS011;59678;52.476;6.046;2022-10-04T14:19:29;3.80;;;2.05;;
43819;SDS011;59678;52.476;6.046;2022-10-04T14:22:03;3.80;;;1.75;;
43819;SDS011;59678;52.476;6.046;2022-10-04T14:30:11;3.15;;;1.52;;
43819;SDS011;59678;52.476;6.046;2022-10-04T14:36:25;3.67;;;1.70;;
43819;SDS011;59678;52.476;6.046;2022-10-04T14:43:44;4.85;;;1.85;;
43819;SDS011;59678;52.476;6.046;2022-10-04T14:54:11;7.03;;;2.50;;
43819;SDS011;59678;52.476;6.046;2022-10-04T15:07:16;5.25;;;2.38;;
43819;SDS011;59678;52.476;6.046;2022-10-04T15:17:26;4.10;;;1.77;;
43819;SDS011;59678;52.476;6.046;2022-10-04T15:19:59;4.10;;;1.98;;
43819;SDS011;59678;52.476;6.046;2022-10-04T15:23:14;5.93;;;2.00;;
43819;SDS011;59678;52.476;6.046;2022-10-04T15:25:35;6.07;;;2.45;;
43819;SDS011;59678;52.476;6.046;2022-10-04T15:27:57;5.70;;;2.08;;
43819;SDS011;59678;52.476;6.046;2022-10-04T15:33:24;4.43;;;1.77;;
43819;SDS011;59678;52.476;6.046;2022-10-04T15:38:29;6.07;;;2.10;;
43819;SDS011;59678;52.476;6.046;2022-10-04T15:41:05;4.43;;;1.50;;
43819;SDS011;59678;52.476;6.046;2022-10-04T15:43:56;3.83;;;1.83;;
43819;SDS011;59678;52.476;6.046;2022-10-04T15:46:36;4.45;;;2.10;;
43819;SDS011;59678;52.476;6.046;2022-10-04T15:49:23;8.30;;;2.10;;
43819;SDS011;59678;52.476;6.046;2022-10-04T16:12:29;4.15;;;1.95;;
43819;SDS011;59678;52.476;6.046;2022-10-04T16:20:35;6.45;;;2.83;;
43819;SDS011;59678;52.476;6.046;2022-10-04T16:25:49;6.10;;;2.08;;
43819;SDS011;59678;52.476;6.046;2022-10-04T16:33:35;4.72;;;2.30;;
43819;SDS011;59678;52.476;6.046;2022-10-04T16:36:12;5.70;;;2.67;;
43819;SDS011;59678;52.476;6.046;2022-10-04T16:38:46;6.32;;;2.30;;
43819;SDS011;59678;52.476;6.046;2022-10-04T16:41:36;9.25;;;2.60;;
43819;SDS011;59678;52.476;6.046;2022-10-04T16:44:06;6.60;;;2.60;;
43819;SDS011;59678;52.476;6.046;2022-10-04T16:46:38;6.30;;;2.60;;
43819;SDS011;59678;52.476;6.046;2022-10-04T17:09:36;8.02;;;2.97;;
43819;SDS011;59678;52.476;6.046;2022-10-04T17:17:07;6.82;;;2.50;;
43819;SDS011;59678;52.476;6.046;2022-10-04T17:19:47;5.88;;;2.70;;
43819;SDS011;59678;52.476;6.046;2022-10-04T17:27:40;5.70;;;2.38;;
43819;SDS011;59678;52.476;6.046;2022-10-04T17:30:19;7.10;;;2.97;;
43819;SDS011;59678;52.476;6.046;2022-10-04T17:33:01;4.55;;;2.40;;
43819;SDS011;59678;52.476;6.046;2022-10-04T17:38:19;9.23;;;2.85;;
43819;SDS011;59678;52.476;6.046;2022-10-04T17:40:58;4.05;;;1.95;;
43819;SDS011;59678;52.476;6.046;2022-10-04T17:43:27;7.40;;;2.67;;
43819;SDS011;59678;52.476;6.046;2022-10-04T17:48:41;9.35;;;3.00;;
43819;SDS011;59678;52.476;6.046;2022-10-04T17:51:46;9.55;;;3.20;;
43819;SDS011;59678;52.476;6.046;2022-10-04T17:54:38;8.70;;;3.38;;
43819;SDS011;59678;52.476;6.046;2022-10-04T17:57:26;10.90;;;2.70;;
43819;SDS011;59678;52.476;6.046;2022-10-04T18:00:05;7.18;;;2.70;;
43819;SDS011;59678;52.476;6.046;2022-10-04T18:08:00;5.38;;;3.10;;
43819;SDS011;59678;52.476;6.046;2022-10-04T18:10:31;4.95;;;2.40;;
43819;SDS011;59678;52.476;6.046;2022-10-04T18:15:50;4.68;;;2.67;;
43819;SDS011;59678;52.476;6.046;2022-10-04T18:18:21;5.43;;;2.63;;
43819;SDS011;59678;52.476;6.046;2022-10-04T18:23:24;5.35;;;2.42;;
43819;SDS011;59678;52.476;6.046;2022-10-04T18:26:04;7.85;;;3.40;;
43819;SDS011;59678;52.476;6.046;2022-10-04T18:28:31;6.05;;;2.85;;
43819;SDS011;59678;52.476;6.046;2022-10-04T18:30:58;7.22;;;3.15;;
43819;SDS011;59678;52.476;6.046;2022-10-04T18:38:23;6.47;;;3.22;;
43819;SDS011;59678;52.476;6.046;2022-10-04T18:45:59;7.03;;;3.17;;
43819;SDS011;59678;52.476;6.046;2022-10-04T18:48:35;8.63;;;3.28;;
43819;SDS011;59678;52.476;6.046;2022-10-04T18:51:15;9.13;;;3.17;;
43819;SDS011;59678;52.476;6.046;2022-10-04T18:53:45;14.37;;;3.63;;
43819;SDS011;59678;52.476;6.046;2022-10-04T18:56:13;7.07;;;3.40;;
43819;SDS011;59678;52.476;6.046;2022-10-04T19:04:43;7.75;;;2.70;;
43819;SDS011;59678;52.476;6.046;2022-10-04T19:07:13;5.53;;;2.58;;
43819;SDS011;59678;52.476;6.046;2022-10-04T19:12:22;6.88;;;2.60;;
43819;SDS011;59678;52.476;6.046;2022-10-04T19:14:51;7.93;;;3.10;;
43819;SDS011;59678;52.476;6.046;2022-10-04T19:19:51;6.47;;;3.08;;
43819;SDS011;59678;52.476;6.046;2022-10-04T19:42:40;14.68;;;3.75;;
43819;SDS011;59678;52.476;6.046;2022-10-04T19:50:17;10.98;;;2.60;;
43819;SDS011;59678;52.476;6.046;2022-10-04T19:52:47;5.07;;;2.45;;
43819;SDS011;59678;52.476;6.046;2022-10-04T19:57:48;4.65;;;2.60;;
43819;SDS011;59678;52.476;6.046;2022-10-04T20:00:14;8.07;;;3.17;;
43819;SDS011;59678;52.476;6.046;2022-10-04T20:02:41;8.05;;;2.97;;
43819;SDS011;59678;52.476;6.046;2022-10-04T20:05:11;6.90;;;4.00;;
43819;SDS011;59678;52.476;6.046;2022-10-04T20:07:37;7.47;;;3.75;;
43819;SDS011;59678;52.476;6.046;2022-10-04T20:10:13;5.70;;;2.35;;
43819;SDS011;59678;52.476;6.046;2022-10-04T20:12:40;5.25;;;2.95;;
43819;SDS011;59678;52.476;6.046;2022-10-04T20:15:13;7.10;;;3.15;;
43819;SDS011;59678;52.476;6.046;2022-10-04T20:17:39;5.80;;;3.25;;
43819;SDS011;59678;52.476;6.046;2022-10-04T20:20:05;8.05;;;3.35;;
43819;SDS011;59678;52.476;6.046;2022-10-04T20:22:52;12.73;;;3.40;;
43819;SDS011;59678;52.476;6.046;2022-10-04T20:28:01;6.93;;;2.42;;
43819;SDS011;59678;52.476;6.046;2022-10-04T20:30:35;5.55;;;2.80;;
43819;SDS011;59678;52.476;6.046;2022-10-04T20:33:12;12.88;;;3.80;;
43819;SDS011;59678;52.476;6.046;2022-10-04T20:36:04;3.15;;;1.92;;
43819;SDS011;59678;52.476;6.046;2022-10-04T20:43:58;4.75;;;2.50;;
43819;SDS011;59678;52.476;6.046;2022-10-04T20:46:26;9.10;;;3.65;;
43819;SDS011;59678;52.476;6.046;2022-10-04T20:48:52;6.00;;;3.38;;
43819;SDS011;59678;52.476;6.046;2022-10-04T20:51:18;7.45;;;3.15;;
43819;SDS011;59678;52.476;6.046;2022-10-04T20:53:44;5.68;;;2.63;;
43819;SDS011;59678;52.476;6.046;2022-10-04T20:58:36;8.10;;;3.30;;
43819;SDS011;59678;52.476;6.046;2022-10-04T21:01:15;8.65;;;3.45;;
43819;SDS011;59678;52.476;6.046;2022-10-04T21:09:16;7.32;;;3.05;;
43819;SDS011;59678;52.476;6.046;2022-10-04T21:11:43;7.35;;;3.13;;
43819;SDS011;59678;52.476;6.046;2022-10-04T21:14:19;8.25;;;3.90;;
43819;SDS011;59678;52.476;6.046;2022-10-04T21:16:46;5.53;;;2.95;;
43819;SDS011;59678;52.476;6.046;2022-10-04T21:21:57;6.55;;;3.28;;
43819;SDS011;59678;52.476;6.046;2022-10-04T21:24:39;6.20;;;3.20;;
43819;SDS011;59678;52.476;6.046;2022-10-04T21:27:08;4.45;;;2.40;;
43819;SDS011;59678;52.476;6.046;2022-10-04T21:29:35;5.38;;;3.40;;
43819;SDS011;59678;52.476;6.046;2022-10-04T21:32:00;6.55;;;2.83;;
43819;SDS011;59678;52.476;6.046;2022-10-04T21:34:26;7.40;;;2.40;;
43819;SDS011;59678;52.476;6.046;2022-10-04T21:36:51;4.50;;;2.17;;
43819;SDS011;59678;52.476;6.046;2022-10-04T21:39:17;5.35;;;2.45;;
43819;SDS011;59678;52.476;6.046;2022-10-04T21:41:43;6.32;;;3.80;;
43819;SDS011;59678;52.476;6.046;2022-10-04T21:44:08;7.18;;;3.70;;
43819;SDS011;59678;52.476;6.046;2022-10-04T21:46:34;7.47;;;3.53;;
43819;SDS011;59678;52.476;6.046;2022-10-04T21:48:59;6.85;;;3.20;;
43819;SDS011;59678;52.476;6.046;2022-10-04T21:51:25;9.10;;;2.90;;
43819;SDS011;59678;52.476;6.046;2022-10-04T21:53:50;4.80;;;2.90;;
43819;SDS011;59678;52.476;6.046;2022-10-04T21:56:16;7.20;;;3.08;;
43819;SDS011;59678;52.476;6.046;2022-10-04T21:58:41;7.30;;;3.15;;
43819;SDS011;59678;52.476;6.046;2022-10-04T22:01:07;4.85;;;2.60;;
43819;SDS011;59678;52.476;6.046;2022-10-04T22:03:32;6.93;;;3.75;;
43819;SDS011;59678;52.476;6.046;2022-10-04T22:05:58;6.35;;;3.30;;
43819;SDS011;59678;52.476;6.046;2022-10-04T22:08:23;6.45;;;3.13;;
43819;SDS011;59678;52.476;6.046;2022-10-04T22:10:48;7.32;;;3.40;;
43819;SDS011;59678;52.476;6.046;2022-10-04T22:13:14;7.50;;;3.22;;
43819;SDS011;59678;52.476;6.046;2022-10-04T22:15:39;5.90;;;2.95;;
43819;SDS011;59678;52.476;6.046;2022-10-04T22:18:05;6.22;;;3.05;;
43819;SDS011;59678;52.476;6.046;2022-10-04T22:20:31;6.10;;;3.70;;
43819;SDS011;59678;52.476;6.046;2022-10-04T22:22:56;7.68;;;3.10;;
43819;SDS011;59678;52.476;6.046;2022-10-04T22:25:22;8.93;;;3.80;;
43819;SDS011;59678;52.476;6.046;2022-10-04T22:27:48;8.23;;;3.78;;
43819;SDS011;59678;52.476;6.046;2022-10-04T22:30:18;7.05;;;4.32;;
43819;SDS011;59678;52.476;6.046;2022-10-04T22:32:45;4.78;;;2.83;;
43819;SDS011;59678;52.476;6.046;2022-10-04T22:35:12;8.82;;;3.90;;
43819;SDS011;59678;52.476;6.046;2022-10-04T22:37:38;7.30;;;3.50;;
43819;SDS011;59678;52.476;6.046;2022-10-04T22:40:04;8.98;;;3.78;;
43819;SDS011;59678;52.476;6.046;2022-10-04T22:42:31;8.88;;;3.72;;
43819;SDS011;59678;52.476;6.046;2022-10-04T22:44:57;7.28;;;4.20;;
43819;SDS011;59678;52.476;6.046;2022-10-04T22:47:25;7.82;;;3.58;;
43819;SDS011;59678;52.476;6.046;2022-10-04T22:49:51;5.78;;;3.22;;
43819;SDS011;59678;52.476;6.046;2022-10-04T22:54:43;5.45;;;3.03;;
43819;SDS011;59678;52.476;6.046;2022-10-04T22:57:10;7.25;;;3.03;;
43819;SDS011;59678;52.476;6.046;2022-10-04T22:59:39;5.25;;;3.30;;
43819;SDS011;59678;52.476;6.046;2022-10-04T23:02:09;5.90;;;3.28;;
43819;SDS011;59678;52.476;6.046;2022-10-04T23:04:35;6.47;;;3.15;;
43819;SDS011;59678;52.476;6.046;2022-10-04T23:07:00;5.55;;;2.70;;
43819;SDS011;59678;52.476;6.046;2022-10-04T23:09:26;6.60;;;3.17;;
43819;SDS011;59678;52.476;6.046;2022-10-04T23:11:51;4.85;;;2.53;;
43819;SDS011;59678;52.476;6.046;2022-10-04T23:14:17;5.30;;;2.55;;
43819;SDS011;59678;52.476;6.046;2022-10-04T23:16:42;4.45;;;3.35;;
43819;SDS011;59678;52.476;6.046;2022-10-04T23:19:13;4.75;;;2.75;;
43819;SDS011;59678;52.476;6.046;2022-10-04T23:21:40;6.20;;;2.60;;
43819;SDS011;59678;52.476;6.046;2022-10-04T23:24:14;8.05;;;3.20;;
43819;SDS011;59678;52.476;6.046;2022-10-04T23:26:41;5.18;;;2.85;;
43819;SDS011;59678;52.476;6.046;2022-10-04T23:29:25;6.22;;;3.05;;
43819;SDS011;59678;52.476;6.046;2022-10-04T23:31:52;6.63;;;2.95;;
43819;SDS011;59678;52.476;6.046;2022-10-04T23:34:19;6.47;;;3.22;;
43819;SDS011;59678;52.476;6.046;2022-10-04T23:36:47;5.25;;;3.28;;
43819;SDS011;59678;52.476;6.046;2022-10-04T23:39:14;7.35;;;3.63;;
43819;SDS011;59678;52.476;6.046;2022-10-04T23:41:44;4.18;;;2.78;;
43819;SDS011;59678;52.476;6.046;2022-10-04T23:44:10;10.20;;;3.03;;
43819;SDS011;59678;52.476;6.046;2022-10-04T23:46:37;6.40;;;3.42;;
43819;SDS011;59678;52.476;6.046;2022-10-04T23:49:02;8.73;;;3.30;;
43819;SDS011;59678;52.476;6.046;2022-10-04T23:51:28;6.43;;;3.58;;